createdAt,value
2023-01-06T00:00:37.037Z,19.13
2023-01-06T00:01:37.191Z,19.09
2023-01-06T00:02:37.002Z,19.12
2023-01-06T00:03:36.941Z,19.06
2023-01-06T00:04:37.014Z,19.10
2023-01-06T00:05:37.004Z,19.06
2023-01-06T00:06:37.142Z,19.01
2023-01-06T00:07:37.086Z,19.07
2023-01-06T00:08:37.401Z,19.06
2023-01-06T00:09:37.128Z,19.10
2023-01-06T00:10:37.145Z,19.06
2023-01-06T00:11:37.222Z,19.12
2023-01-06T00:12:37.204Z,19.15
2023-01-06T00:13:37.308Z,19.07
2023-01-06T00:14:37.269Z,19.06
2023-01-06T00:15:37.569Z,18.99
2023-01-06T00:16:37.317Z,19.07
2023-01-06T00:17:37.348Z,19.12
2023-01-06T00:18:37.518Z,19.05
2023-01-06T00:19:37.424Z,19.06
2023-01-06T00:20:37.434Z,19.12
2023-01-06T00:21:37.469Z,19.10
2023-01-06T00:22:37.861Z,19.07
2023-01-06T00:23:37.533Z,19.10
2023-01-06T00:24:37.557Z,19.07
2023-01-06T00:25:37.599Z,19.06
2023-01-06T00:26:37.610Z,19.10
2023-01-06T00:27:37.673Z,19.06
2023-01-06T00:28:37.661Z,18.99
2023-01-06T00:29:37.949Z,19.01
2023-01-06T00:30:37.727Z,19.13
2023-01-06T00:31:37.761Z,19.02
2023-01-06T00:32:37.820Z,19.05
2023-01-06T00:33:37.855Z,19.05
2023-01-06T00:34:37.842Z,19.13
2023-01-06T00:35:37.885Z,19.09
2023-01-06T00:36:38.158Z,19.05
2023-01-06T00:37:37.926Z,19.05
2023-01-06T00:38:38.093Z,19.02
2023-01-06T00:40:38.036Z,19.05
2023-01-06T00:41:38.047Z,19.06
2023-01-06T00:42:38.071Z,18.99
2023-01-06T00:43:38.399Z,19.06
2023-01-06T00:44:38.148Z,19.05
2023-01-06T00:45:38.156Z,19.09
2023-01-06T00:46:38.259Z,19.06
2023-01-06T00:47:38.214Z,18.97
2023-01-06T00:48:38.255Z,19.07
2023-01-06T00:49:38.374Z,18.99
2023-01-06T00:50:38.558Z,19.02
2023-01-06T00:52:38.365Z,19.06
2023-01-06T00:54:38.656Z,19.07
2023-01-06T00:56:38.490Z,19.02
2023-01-06T00:57:38.773Z,19.05
2023-01-06T00:58:38.551Z,19.06
2023-01-06T00:59:38.666Z,18.97
2023-01-06T01:00:38.590Z,19.02
2023-01-06T01:01:38.778Z,19.06
2023-01-06T01:02:38.810Z,19.02
2023-01-06T01:03:38.980Z,19.06
2023-01-06T01:04:38.710Z,19.07
2023-01-06T01:05:38.739Z,19.05
2023-01-06T01:06:38.799Z,19.09
2023-01-06T01:07:38.802Z,18.99
2023-01-06T01:08:38.851Z,19.05
2023-01-06T01:09:39.112Z,19.07
2023-01-06T01:10:39.007Z,19.07
2023-01-06T01:11:38.917Z,19.01
2023-01-06T01:12:38.941Z,19.06
2023-01-06T01:13:38.971Z,19.01
2023-01-06T01:14:39.005Z,19.06
2023-01-06T01:15:39.373Z,19.06
2023-01-06T01:17:39.095Z,19.05
2023-01-06T01:18:39.113Z,19.05
2023-01-06T01:19:39.151Z,18.99
2023-01-06T01:20:39.173Z,19.01
2023-01-06T01:21:39.201Z,19.01
2023-01-06T01:22:39.577Z,19.06
2023-01-06T01:23:39.265Z,19.06
2023-01-06T01:24:39.291Z,18.99
2023-01-06T01:25:39.321Z,19.02
2023-01-06T01:26:39.457Z,18.97
2023-01-06T01:27:39.377Z,19.02
2023-01-06T01:28:39.416Z,19.01
2023-01-06T01:29:39.736Z,19.01
2023-01-06T01:30:39.465Z,19.01
2023-01-06T01:31:39.494Z,19.01
2023-01-06T01:32:39.522Z,19.06
2023-01-06T01:33:39.552Z,19.02
2023-01-06T01:34:39.583Z,19.05
2023-01-06T01:35:39.618Z,19.02
2023-01-06T01:36:39.947Z,18.97
2023-01-06T01:37:39.673Z,18.96
2023-01-06T01:38:39.695Z,18.97
2023-01-06T01:39:39.750Z,19.02
2023-01-06T01:40:39.762Z,18.97
2023-01-06T01:41:39.788Z,18.99
2023-01-06T01:42:40.238Z,19.02
2023-01-06T01:43:40.150Z,19.02
2023-01-06T01:44:39.867Z,18.96
2023-01-06T01:45:39.897Z,19.02
2023-01-06T01:46:40.057Z,19.01
2023-01-06T01:47:39.972Z,18.97
2023-01-06T01:48:39.994Z,19.07
2023-01-06T01:49:40.021Z,19.02
2023-01-06T01:50:40.357Z,18.94
2023-01-06T01:52:40.100Z,18.96
2023-01-06T01:53:40.135Z,18.96
2023-01-06T01:54:40.166Z,18.97
2023-01-06T01:55:40.192Z,19.02
2023-01-06T01:56:40.221Z,19.05
2023-01-06T01:57:40.559Z,19.05
2023-01-06T01:58:40.390Z,18.96
2023-01-06T01:59:40.420Z,19.02
2023-01-06T02:02:40.919Z,18.97
2023-01-06T02:03:40.422Z,18.94
2023-01-06T02:04:40.708Z,18.96
2023-01-06T02:05:40.485Z,18.91
2023-01-06T02:06:40.500Z,19.05
2023-01-06T02:07:40.535Z,18.97
2023-01-06T02:08:40.571Z,18.99
2023-01-06T02:09:40.598Z,18.91
2023-01-06T02:10:40.624Z,18.94
2023-01-06T02:11:40.912Z,19.01
2023-01-06T02:12:40.680Z,18.89
2023-01-06T02:13:40.710Z,18.96
2023-01-06T02:14:40.885Z,18.96
2023-01-06T02:15:40.816Z,18.96
2023-01-06T02:16:40.799Z,19.02
2023-01-06T02:17:40.840Z,19.02
2023-01-06T02:18:41.165Z,19.02
2023-01-06T02:19:40.897Z,18.91
2023-01-06T02:20:40.909Z,19.02
2023-01-06T02:21:40.946Z,19.02
2023-01-06T02:22:40.969Z,18.91
2023-01-06T02:23:41.004Z,18.94
2023-01-06T02:24:41.031Z,19.05
2023-01-06T02:25:41.311Z,18.94
2023-01-06T02:26:41.098Z,18.97
2023-01-06T02:27:41.118Z,19.02
2023-01-06T02:28:41.143Z,19.01
2023-01-06T02:29:41.178Z,18.96
2023-01-06T02:30:41.322Z,18.94
2023-01-06T02:31:41.237Z,18.99
2023-01-06T02:32:41.566Z,18.99
2023-01-06T02:33:41.301Z,18.91
2023-01-06T02:34:41.315Z,18.97
2023-01-06T02:35:41.347Z,19.02
2023-01-06T02:36:41.379Z,18.99
2023-01-06T02:37:41.429Z,18.99
2023-01-06T02:38:41.430Z,18.94
2023-01-06T02:40:41.750Z,18.89
2023-01-06T02:41:41.554Z,18.99
2023-01-06T02:42:41.557Z,18.94
2023-01-06T02:43:41.584Z,18.86
2023-01-06T02:44:41.614Z,18.87
2023-01-06T02:45:41.640Z,19.05
2023-01-06T02:46:41.858Z,18.86
2023-01-06T02:47:41.942Z,18.96
2023-01-06T02:48:41.760Z,18.89
2023-01-06T02:49:41.762Z,18.93
2023-01-06T02:50:41.799Z,18.96
2023-01-06T02:51:41.811Z,18.89
2023-01-06T02:52:41.842Z,18.90
2023-01-06T02:53:41.873Z,18.86
2023-01-06T02:54:42.564Z,18.93
2023-01-06T02:55:41.943Z,18.93
2023-01-06T02:56:41.955Z,18.99
2023-01-06T02:57:41.988Z,18.91
2023-01-06T02:58:42.014Z,18.91
2023-01-06T02:59:42.048Z,18.93
2023-01-06T03:00:42.072Z,18.89
2023-01-06T03:01:42.860Z,18.89
2023-01-06T03:02:42.256Z,18.91
2023-01-06T03:03:42.157Z,18.99
2023-01-06T03:04:42.204Z,18.99
2023-01-06T03:06:42.258Z,18.89
2023-01-06T03:07:42.277Z,18.94
2023-01-06T03:08:42.955Z,18.93
2023-01-06T03:09:42.368Z,18.96
2023-01-06T03:10:42.360Z,19.01
2023-01-06T03:11:42.393Z,18.93
2023-01-06T03:12:42.439Z,18.91
2023-01-06T03:13:42.960Z,18.91
2023-01-06T03:14:42.884Z,18.86
2023-01-06T03:15:42.506Z,18.89
2023-01-06T03:16:42.533Z,18.82
2023-01-06T03:17:42.568Z,18.94
2023-01-06T03:18:42.720Z,18.96
2023-01-06T03:19:42.642Z,18.93
2023-01-06T03:21:43.084Z,18.89
2023-01-06T03:22:42.719Z,18.91
2023-01-06T03:23:42.754Z,18.94
2023-01-06T03:24:42.775Z,18.89
2023-01-06T03:25:42.837Z,18.94
2023-01-06T03:26:42.858Z,18.87
2023-01-06T03:27:43.164Z,18.91
2023-01-06T03:28:43.051Z,18.86
2023-01-06T03:29:43.018Z,18.86
2023-01-06T03:30:43.170Z,18.96
2023-01-06T03:31:43.256Z,18.93
2023-01-06T03:32:43.127Z,18.89
2023-01-06T03:33:43.340Z,18.87
2023-01-06T03:34:43.311Z,18.93
2023-01-06T03:35:43.335Z,18.86
2023-01-06T03:36:43.288Z,18.87
2023-01-06T03:37:43.250Z,19.02
2023-01-06T03:38:43.433Z,18.87
2023-01-06T03:39:43.433Z,18.91
2023-01-06T03:40:43.792Z,18.93
2023-01-06T03:41:43.349Z,18.87
2023-01-06T03:42:43.400Z,18.89
2023-01-06T03:43:43.371Z,18.89
2023-01-06T03:44:43.513Z,18.90
2023-01-06T03:45:43.547Z,18.87
2023-01-06T03:46:43.657Z,18.93
2023-01-06T03:47:43.993Z,18.91
2023-01-06T03:48:43.619Z,18.90
2023-01-06T03:49:43.710Z,18.89
2023-01-06T03:50:43.897Z,18.89
2023-01-06T03:51:43.678Z,18.89
2023-01-06T03:52:43.742Z,18.87
2023-01-06T03:53:43.814Z,18.94
2023-01-06T03:54:44.034Z,18.97
2023-01-06T03:55:43.731Z,18.93
2023-01-06T03:56:43.721Z,18.89
2023-01-06T03:57:43.730Z,18.87
2023-01-06T03:58:43.822Z,18.89
2023-01-06T03:59:43.849Z,18.90
2023-01-06T04:00:44.230Z,18.90
2023-01-06T04:01:44.281Z,18.86
2023-01-06T04:02:43.985Z,18.91
2023-01-06T04:03:43.998Z,18.86
2023-01-06T04:04:44.149Z,18.86
2023-01-06T04:05:44.115Z,18.89
2023-01-06T04:06:44.096Z,18.96
2023-01-06T04:07:44.187Z,18.87
2023-01-06T04:08:44.356Z,19.02
2023-01-06T04:09:44.087Z,18.89
2023-01-06T04:10:44.106Z,18.91
2023-01-06T04:11:44.140Z,18.83
2023-01-06T04:12:44.166Z,18.82
2023-01-06T04:13:44.195Z,18.83
2023-01-06T04:14:44.224Z,18.93
2023-01-06T04:15:44.562Z,18.84
2023-01-06T04:16:44.295Z,18.97
2023-01-06T04:17:44.316Z,18.94
2023-01-06T04:18:44.336Z,18.93
2023-01-06T04:19:44.380Z,18.89
2023-01-06T04:20:44.549Z,18.96
2023-01-06T04:21:44.471Z,18.93
2023-01-06T04:22:44.864Z,18.90
2023-01-06T04:23:44.500Z,18.87
2023-01-06T04:24:44.511Z,18.97
2023-01-06T04:25:45.083Z,18.86
2023-01-06T04:26:44.576Z,18.97
2023-01-06T04:27:44.720Z,18.97
2023-01-06T04:28:44.655Z,19.02
2023-01-06T04:29:44.972Z,18.96
2023-01-06T04:30:44.724Z,18.89
2023-01-06T04:31:44.816Z,18.97
2023-01-06T04:32:44.741Z,18.82
2023-01-06T04:33:44.777Z,19.01
2023-01-06T04:34:44.799Z,18.97
2023-01-06T04:35:44.846Z,18.87
2023-01-06T04:36:45.163Z,18.87
2023-01-06T04:37:44.898Z,18.93
2023-01-06T04:38:45.028Z,18.82
2023-01-06T04:39:44.952Z,18.93
2023-01-06T04:40:44.991Z,19.01
2023-01-06T04:41:45.031Z,18.86
2023-01-06T04:42:45.030Z,18.89
2023-01-06T04:43:45.322Z,18.93
2023-01-06T04:44:45.100Z,18.86
2023-01-06T04:45:45.174Z,18.93
2023-01-06T04:46:45.153Z,18.90
2023-01-06T04:47:45.216Z,18.90
2023-01-06T04:48:45.436Z,18.99
2023-01-06T04:49:45.243Z,18.97
2023-01-06T04:50:45.594Z,18.90
2023-01-06T04:51:45.318Z,18.91
2023-01-06T04:52:45.332Z,18.93
2023-01-06T04:53:45.401Z,18.93
2023-01-06T04:54:45.458Z,18.87
2023-01-06T04:55:45.432Z,18.84
2023-01-06T04:56:45.444Z,18.89
2023-01-06T04:57:45.774Z,18.91
2023-01-06T04:58:45.544Z,18.96
2023-01-06T04:59:45.528Z,18.90
2023-01-06T05:01:45.619Z,18.86
2023-01-06T05:02:45.627Z,18.96
2023-01-06T05:03:45.705Z,18.91
2023-01-06T05:04:47.895Z,18.94
2023-01-06T05:05:45.709Z,18.91
2023-01-06T05:06:45.747Z,18.91
2023-01-06T05:07:45.778Z,18.94
2023-01-06T05:08:45.801Z,18.84
2023-01-06T05:09:45.812Z,18.96
2023-01-06T05:11:46.284Z,18.90
2023-01-06T05:12:46.012Z,18.87
2023-01-06T05:14:45.964Z,18.93
2023-01-06T05:15:46.022Z,18.91
2023-01-06T05:16:46.075Z,18.94
2023-01-06T05:17:46.319Z,18.93
2023-01-06T05:18:46.075Z,18.93
2023-01-06T05:19:46.116Z,18.90
2023-01-06T05:21:46.171Z,18.89
2023-01-06T05:22:46.197Z,18.93
2023-01-06T05:23:46.540Z,18.93
2023-01-06T05:24:46.255Z,18.90
2023-01-06T05:25:46.281Z,18.93
2023-01-06T05:26:46.311Z,18.96
2023-01-06T05:28:46.369Z,19.02
2023-01-06T05:29:46.698Z,18.99
2023-01-06T05:30:46.484Z,18.86
2023-01-06T05:31:46.699Z,18.91
2023-01-06T05:32:46.598Z,18.90
2023-01-06T05:33:46.515Z,18.91
2023-01-06T05:34:46.549Z,18.93
2023-01-06T05:35:46.582Z,18.89
2023-01-06T05:36:46.907Z,18.94
2023-01-06T05:37:46.630Z,18.79
2023-01-06T05:38:46.654Z,18.87
2023-01-06T05:39:46.683Z,18.83
2023-01-06T05:40:46.739Z,18.91
2023-01-06T05:41:46.742Z,18.86
2023-01-06T05:42:46.786Z,18.93
2023-01-06T05:43:47.216Z,18.87
2023-01-06T05:44:46.838Z,18.94
2023-01-06T05:45:46.956Z,18.91
2023-01-06T05:46:46.903Z,18.83
2023-01-06T05:47:46.919Z,18.79
2023-01-06T05:48:46.944Z,18.90
2023-01-06T05:49:47.048Z,18.86
2023-01-06T05:50:47.313Z,18.79
2023-01-06T05:51:47.039Z,18.91
2023-01-06T05:52:47.061Z,18.89
2023-01-06T05:53:47.090Z,18.89
2023-01-06T05:54:47.127Z,18.84
2023-01-06T05:55:47.151Z,18.84
2023-01-06T05:56:47.191Z,18.86
2023-01-06T05:57:47.513Z,18.94
2023-01-06T05:58:47.269Z,18.86
2023-01-06T05:59:47.383Z,18.78
2023-01-06T06:00:47.397Z,18.89
2023-01-06T06:01:47.471Z,18.83
2023-01-06T06:02:47.358Z,18.84
2023-01-06T06:03:47.466Z,18.83
2023-01-06T06:04:47.719Z,18.91
2023-01-06T06:05:47.540Z,18.89
2023-01-06T06:06:47.476Z,18.90
2023-01-06T06:07:47.504Z,18.89
2023-01-06T06:08:47.530Z,18.78
2023-01-06T06:09:47.584Z,18.83
2023-01-06T06:10:47.583Z,18.82
2023-01-06T06:11:47.619Z,18.83
2023-01-06T06:12:47.660Z,18.84
2023-01-06T06:13:47.689Z,18.87
2023-01-06T06:14:47.725Z,18.83
2023-01-06T06:15:47.853Z,18.79
2023-01-06T06:16:47.819Z,18.86
2023-01-06T06:17:48.047Z,18.90
2023-01-06T06:18:47.826Z,18.90
2023-01-06T06:19:47.860Z,18.78
2023-01-06T06:20:47.882Z,18.93
2023-01-06T06:22:47.981Z,18.84
2023-01-06T06:23:47.974Z,18.79
2023-01-06T06:24:48.243Z,18.84
2023-01-06T06:25:48.019Z,18.87
2023-01-06T06:26:48.072Z,18.84
2023-01-06T06:27:48.077Z,18.83
2023-01-06T06:28:48.109Z,18.97
2023-01-06T06:29:48.132Z,18.78
2023-01-06T06:30:48.176Z,18.87
2023-01-06T06:32:48.598Z,18.82
2023-01-06T06:33:48.252Z,18.86
2023-01-06T06:34:48.285Z,18.78
2023-01-06T06:35:48.310Z,18.83
2023-01-06T06:36:48.344Z,18.86
2023-01-06T06:37:48.371Z,18.86
2023-01-06T06:38:48.407Z,18.79
2023-01-06T06:39:48.435Z,18.79
2023-01-06T06:40:48.463Z,18.90
2023-01-06T06:41:48.495Z,18.79
2023-01-06T06:42:48.512Z,18.89
2023-01-06T06:43:48.551Z,18.79
2023-01-06T06:44:50.693Z,18.89
2023-01-06T06:46:48.949Z,18.89
2023-01-06T06:47:48.660Z,18.86
2023-01-06T06:48:48.816Z,18.82
2023-01-06T06:49:48.720Z,18.84
2023-01-06T06:50:48.742Z,18.90
2023-01-06T06:51:48.786Z,18.86
2023-01-06T06:52:48.818Z,18.93
2023-01-06T06:53:49.141Z,18.86
2023-01-06T06:54:48.868Z,18.86
2023-01-06T06:55:48.890Z,18.82
2023-01-06T06:56:48.971Z,18.84
2023-01-06T06:57:48.947Z,18.86
2023-01-06T06:59:49.314Z,18.83
2023-01-06T07:00:49.036Z,18.87
2023-01-06T07:01:49.232Z,18.89
2023-01-06T07:02:49.098Z,18.83
2023-01-06T07:03:49.131Z,18.87
2023-01-06T07:04:49.330Z,18.90
2023-01-06T07:05:49.196Z,18.90
2023-01-06T07:06:49.238Z,18.78
2023-01-06T07:07:49.244Z,18.84
2023-01-06T07:08:49.273Z,18.93
2023-01-06T07:09:49.322Z,18.83
2023-01-06T07:10:49.333Z,18.87
2023-01-06T07:11:49.658Z,18.86
2023-01-06T07:12:49.438Z,18.84
2023-01-06T07:13:49.415Z,18.82
2023-01-06T07:14:49.450Z,18.83
2023-01-06T07:15:49.608Z,18.90
2023-01-06T07:16:49.503Z,18.89
2023-01-06T07:18:49.857Z,18.79
2023-01-06T07:19:49.596Z,18.89
2023-01-06T07:20:49.727Z,18.78
2023-01-06T07:21:49.641Z,18.86
2023-01-06T07:23:49.702Z,18.86
2023-01-06T07:24:49.736Z,18.78
2023-01-06T07:25:50.020Z,18.89
2023-01-06T07:26:49.794Z,18.86
2023-01-06T07:27:49.900Z,18.89
2023-01-06T07:28:49.846Z,18.83
2023-01-06T07:29:49.978Z,18.86
2023-01-06T07:30:49.973Z,18.86
2023-01-06T07:31:49.984Z,18.90
2023-01-06T07:32:49.989Z,18.87
2023-01-06T07:33:50.013Z,18.87
2023-01-06T07:34:50.022Z,18.89
2023-01-06T07:35:50.052Z,18.89
2023-01-06T07:36:50.218Z,18.86
2023-01-06T07:37:50.275Z,18.86
2023-01-06T07:38:50.142Z,18.84
2023-01-06T07:40:50.217Z,18.93
2023-01-06T07:41:50.235Z,18.79
2023-01-06T07:42:50.283Z,18.87
2023-01-06T07:43:50.299Z,18.87
2023-01-06T07:44:50.571Z,19.01
2023-01-06T07:45:50.366Z,18.91
2023-01-06T07:46:50.407Z,18.96
2023-01-06T07:47:50.406Z,18.96
2023-01-06T07:48:50.427Z,18.94
2023-01-06T07:49:50.461Z,18.91
2023-01-06T07:50:50.533Z,18.96
2023-01-06T07:51:50.817Z,18.87
2023-01-06T07:52:50.666Z,18.97
2023-01-06T07:53:50.590Z,18.90
2023-01-06T07:54:50.701Z,18.94
2023-01-06T07:55:50.633Z,18.96
2023-01-06T07:56:50.662Z,18.93
2023-01-06T07:57:50.689Z,18.93
2023-01-06T07:58:50.717Z,18.91
2023-01-06T07:59:50.743Z,18.93
2023-01-06T08:00:51.004Z,18.93
2023-01-06T08:01:50.906Z,18.87
2023-01-06T08:02:51.679Z,18.90
2023-01-06T08:03:51.137Z,18.94
2023-01-06T08:04:51.249Z,18.87
2023-01-06T08:05:50.919Z,18.89
2023-01-06T08:06:50.958Z,18.90
2023-01-06T08:08:51.028Z,18.87
2023-01-06T08:10:51.319Z,18.89
2023-01-06T08:11:51.171Z,18.83
2023-01-06T08:12:51.135Z,18.86
2023-01-06T08:13:51.179Z,18.90
2023-01-06T08:14:51.190Z,18.93
2023-01-06T08:15:51.294Z,18.91
2023-01-06T08:16:51.239Z,18.89
2023-01-06T08:17:51.272Z,18.86
2023-01-06T08:18:51.373Z,18.90
2023-01-06T08:19:51.349Z,18.91
2023-01-06T08:21:51.698Z,18.83
2023-01-06T08:22:51.717Z,18.93
2023-01-06T08:23:51.452Z,18.89
2023-01-06T08:24:51.595Z,18.90
2023-01-06T08:25:51.605Z,18.90
2023-01-06T08:26:51.541Z,18.97
2023-01-06T08:27:52.038Z,18.93
2023-01-06T08:28:51.735Z,18.86
2023-01-06T08:29:51.615Z,18.96
2023-01-06T08:30:51.925Z,18.94
2023-01-06T08:32:51.794Z,18.94
2023-01-06T08:33:51.756Z,18.86
2023-01-06T08:34:51.811Z,18.90
2023-01-06T08:35:51.790Z,18.91
2023-01-06T08:36:51.860Z,18.86
2023-01-06T08:37:52.142Z,18.82
2023-01-06T08:39:52.213Z,18.94
2023-01-06T08:40:52.596Z,18.91
2023-01-06T08:41:51.980Z,18.75
2023-01-06T08:42:51.996Z,18.86
2023-01-06T08:43:52.051Z,18.75
2023-01-06T08:44:52.067Z,18.93
2023-01-06T08:45:52.334Z,18.94
2023-01-06T08:46:52.113Z,18.89
2023-01-06T08:47:52.145Z,18.86
2023-01-06T08:48:52.173Z,18.82
2023-01-06T08:49:52.197Z,18.90
2023-01-06T08:50:52.228Z,18.91
2023-01-06T08:51:52.252Z,18.86
2023-01-06T08:52:52.590Z,18.87
2023-01-06T08:53:52.424Z,18.87
2023-01-06T08:54:52.349Z,18.86
2023-01-06T08:56:52.524Z,18.89
2023-01-06T08:57:54.862Z,18.84
2023-01-06T08:58:52.465Z,18.91
2023-01-06T08:59:52.485Z,18.82
2023-01-06T09:00:52.527Z,18.86
2023-01-06T09:01:52.695Z,18.78
2023-01-06T09:03:52.614Z,18.82
2023-01-06T09:04:52.671Z,18.89
2023-01-06T09:05:52.958Z,18.90
2023-01-06T09:06:52.720Z,18.86
2023-01-06T09:07:52.728Z,18.76
2023-01-06T09:08:52.748Z,18.89
2023-01-06T09:09:52.774Z,18.90
2023-01-06T09:10:52.815Z,18.93
2023-01-06T09:11:52.830Z,18.89
2023-01-06T09:12:52.981Z,18.87
2023-01-06T09:13:52.902Z,18.90
2023-01-06T09:14:52.925Z,18.94
2023-01-06T09:15:52.991Z,18.82
2023-01-06T09:16:53.085Z,18.86
2023-01-06T09:17:53.143Z,18.83
2023-01-06T09:18:53.368Z,18.91
2023-01-06T09:19:53.092Z,18.89
2023-01-06T09:20:53.105Z,18.84
2023-01-06T09:21:53.124Z,18.84
2023-01-06T09:22:53.166Z,18.83
2023-01-06T09:23:53.174Z,18.89
2023-01-06T09:24:53.219Z,18.87
2023-01-06T09:25:53.235Z,18.82
2023-01-06T09:26:53.270Z,18.86
2023-01-06T09:27:53.289Z,18.83
2023-01-06T09:28:53.478Z,18.72
2023-01-06T09:29:53.362Z,18.78
2023-01-06T09:30:53.463Z,18.79
2023-01-06T09:31:53.720Z,18.79
2023-01-06T09:32:54.159Z,18.87
2023-01-06T09:33:53.476Z,18.75
2023-01-06T09:34:53.511Z,18.86
2023-01-06T09:35:53.529Z,18.76
2023-01-06T09:36:53.563Z,18.79
2023-01-06T09:37:53.580Z,18.83
2023-01-06T09:38:53.616Z,18.82
2023-01-06T09:39:53.678Z,18.86
2023-01-06T09:40:53.675Z,18.84
2023-01-06T09:41:53.713Z,18.82
2023-01-06T09:43:54.071Z,18.76
2023-01-06T09:44:53.905Z,18.82
2023-01-06T09:45:53.820Z,18.86
2023-01-06T09:47:53.869Z,18.82
2023-01-06T09:48:53.901Z,18.75
2023-01-06T09:49:53.929Z,18.83
2023-01-06T09:51:54.292Z,18.83
2023-01-06T09:52:54.025Z,18.82
2023-01-06T09:54:54.078Z,18.82
2023-01-06T09:55:54.104Z,18.78
2023-01-06T09:56:54.152Z,18.78
2023-01-06T09:57:54.167Z,18.84
2023-01-06T09:58:54.444Z,18.83
2023-01-06T09:59:54.223Z,18.82
2023-01-06T10:00:54.368Z,18.78
2023-01-06T10:01:54.405Z,18.78
2023-01-06T10:02:54.309Z,18.74
2023-01-06T10:03:54.429Z,18.83
2023-01-06T10:04:54.674Z,18.78
2023-01-06T10:05:54.422Z,18.83
2023-01-06T10:06:54.430Z,18.86
2023-01-06T10:07:54.471Z,18.78
2023-01-06T10:08:54.513Z,18.78
2023-01-06T10:09:54.507Z,18.76
2023-01-06T10:10:54.558Z,18.79
2023-01-06T10:11:54.571Z,18.75
2023-01-06T10:12:54.613Z,18.86
2023-01-06T10:13:54.630Z,18.82
2023-01-06T10:14:54.655Z,18.83
2023-01-06T10:15:54.700Z,18.76
2023-01-06T10:16:54.828Z,18.76
2023-01-06T10:17:55.059Z,18.74
2023-01-06T10:18:54.825Z,18.78
2023-01-06T10:19:54.806Z,18.76
2023-01-06T10:20:54.848Z,18.78
2023-01-06T10:21:54.852Z,18.82
2023-01-06T10:22:54.880Z,18.76
2023-01-06T10:23:54.910Z,18.82
2023-01-06T10:24:55.250Z,18.82
2023-01-06T10:25:54.967Z,18.79
2023-01-06T10:26:55.005Z,18.78
2023-01-06T10:27:55.025Z,18.78
2023-01-06T10:28:55.053Z,18.76
2023-01-06T10:29:55.181Z,18.78
2023-01-06T10:30:55.119Z,18.83
2023-01-06T10:31:55.389Z,18.74
2023-01-06T10:32:55.292Z,18.74
2023-01-06T10:33:55.211Z,18.74
2023-01-06T10:34:55.245Z,18.68
2023-01-06T10:35:55.262Z,18.68
2023-01-06T10:36:55.296Z,18.69
2023-01-06T10:37:55.318Z,18.71
2023-01-06T10:38:55.658Z,18.74
2023-01-06T10:39:55.382Z,18.74
2023-01-06T10:40:55.408Z,18.74
2023-01-06T10:41:55.452Z,18.82
2023-01-06T10:42:55.519Z,18.78
2023-01-06T10:43:55.490Z,18.79
2023-01-06T10:44:55.515Z,18.76
2023-01-06T10:45:55.842Z,18.75
2023-01-06T10:47:55.599Z,18.78
2023-01-06T10:48:55.743Z,18.75
2023-01-06T10:49:55.662Z,18.72
2023-01-06T10:50:57.153Z,18.75
2023-01-06T10:51:55.720Z,18.75
2023-01-06T10:52:56.049Z,18.82
2023-01-06T10:53:55.776Z,18.78
2023-01-06T10:54:55.806Z,18.76
2023-01-06T10:55:55.857Z,18.75
2023-01-06T10:56:55.871Z,18.71
2023-01-06T10:57:55.893Z,18.78
2023-01-06T10:58:56.229Z,18.75
2023-01-06T10:59:55.944Z,18.79
2023-01-06T11:00:56.102Z,18.78
2023-01-06T11:01:56.194Z,18.78
2023-01-06T11:03:09.054Z,18.76
2023-01-06T11:03:56.166Z,18.83
2023-01-06T11:04:56.117Z,18.79
2023-01-06T11:05:56.276Z,18.74
2023-01-06T11:06:56.152Z,18.75
2023-01-06T11:07:56.273Z,18.86
2023-01-06T11:08:56.219Z,18.76
2023-01-06T11:09:56.248Z,18.78
2023-01-06T11:10:56.523Z,18.86
2023-01-06T11:11:56.294Z,18.84
2023-01-06T11:12:56.319Z,18.87
2023-01-06T11:13:56.360Z,18.83
2023-01-06T11:16:56.740Z,18.82
2023-01-06T11:17:56.468Z,18.75
2023-01-06T11:18:56.496Z,18.87
2023-01-06T11:19:56.538Z,18.82
2023-01-06T11:20:56.667Z,18.86
2023-01-06T11:21:56.576Z,18.76
2023-01-06T11:22:56.604Z,18.78
2023-01-06T11:23:56.934Z,18.87
2023-01-06T11:24:56.661Z,18.76
2023-01-06T11:25:56.704Z,18.90
2023-01-06T11:26:56.722Z,18.76
2023-01-06T11:27:56.750Z,18.89
2023-01-06T11:28:56.778Z,18.91
2023-01-06T11:29:56.823Z,18.84
2023-01-06T11:30:56.834Z,18.84
2023-01-06T11:31:56.979Z,18.83
2023-01-06T11:32:56.995Z,18.86
2023-01-06T11:33:56.920Z,18.86
2023-01-06T11:34:56.948Z,18.84
2023-01-06T11:35:56.982Z,18.82
2023-01-06T11:36:57.371Z,18.89
2023-01-06T11:37:57.046Z,18.84
2023-01-06T11:38:57.068Z,18.89
2023-01-06T11:40:05.090Z,18.87
2023-01-06T11:40:57.171Z,18.90
2023-01-06T11:41:57.155Z,18.84
2023-01-06T11:42:57.177Z,18.87
2023-01-06T11:44:57.489Z,18.90
2023-01-06T11:45:57.479Z,18.89
2023-01-06T11:46:57.305Z,18.83
2023-01-06T11:47:57.325Z,18.87
2023-01-06T11:48:57.355Z,18.90
2023-01-06T11:49:57.417Z,18.87
2023-01-06T11:50:57.440Z,18.86
2023-01-06T11:51:57.435Z,18.90
2023-01-06T11:52:57.586Z,18.83
2023-01-06T11:53:57.503Z,18.91
2023-01-06T11:54:57.574Z,18.86
2023-01-06T11:55:57.562Z,18.87
2023-01-06T11:56:57.587Z,18.84
2023-01-06T11:57:57.918Z,18.82
2023-01-06T11:58:57.712Z,18.90
2023-01-06T11:59:57.731Z,18.83
2023-01-06T12:00:57.733Z,18.82
2023-01-06T12:01:57.949Z,18.86
2023-01-06T12:02:57.823Z,18.79
2023-01-06T12:03:58.129Z,18.78
2023-01-06T12:04:57.816Z,18.82
2023-01-06T12:05:57.841Z,18.83
2023-01-06T12:06:57.883Z,18.79
2023-01-06T12:07:57.903Z,18.75
2023-01-06T12:08:58.037Z,18.74
2023-01-06T12:09:58.204Z,18.76
2023-01-06T12:10:57.985Z,18.74
2023-01-06T12:11:58.024Z,18.74
2023-01-06T12:12:58.043Z,18.75
2023-01-06T12:14:10.905Z,18.72
2023-01-06T12:14:58.101Z,18.74
2023-01-06T12:15:58.124Z,18.82
2023-01-06T12:16:58.297Z,18.84
2023-01-06T12:17:58.291Z,18.75
2023-01-06T12:18:58.271Z,18.76
2023-01-06T12:19:58.252Z,18.86
2023-01-06T12:20:58.273Z,18.79
2023-01-06T12:21:58.605Z,18.86
2023-01-06T12:22:58.365Z,18.91
2023-01-06T12:23:58.358Z,18.76
2023-01-06T12:24:58.511Z,18.89
2023-01-06T12:25:58.433Z,18.91
2023-01-06T12:26:58.594Z,18.78
2023-01-06T12:27:58.477Z,18.89
2023-01-06T12:28:58.509Z,18.84
2023-01-06T12:29:58.644Z,18.84
2023-01-06T12:30:58.614Z,18.91
2023-01-06T12:31:58.591Z,18.84
2023-01-06T12:32:58.651Z,18.90
2023-01-06T12:33:58.648Z,18.83
2023-01-06T12:34:58.989Z,18.79
2023-01-06T12:35:58.712Z,18.89
2023-01-06T12:36:58.736Z,18.89
2023-01-06T12:38:58.791Z,18.91
2023-01-06T12:39:58.820Z,18.84
2023-01-06T12:40:58.971Z,18.89
2023-01-06T12:41:59.187Z,18.97
2023-01-06T12:42:58.913Z,18.93
2023-01-06T12:43:58.943Z,18.79
2023-01-06T12:44:58.975Z,18.91
2023-01-06T12:45:59.024Z,18.84
2023-01-06T12:46:59.032Z,18.93
2023-01-06T12:47:59.165Z,18.87
2023-01-06T12:48:59.080Z,18.86
2023-01-06T12:49:59.120Z,18.93
2023-01-06T12:50:59.184Z,18.91
2023-01-06T12:51:59.175Z,18.94
2023-01-06T12:53:01.263Z,18.94
2023-01-06T12:53:59.494Z,18.90
2023-01-06T12:54:59.420Z,18.93
2023-01-06T12:55:59.282Z,18.86
2023-01-06T12:56:59.446Z,18.94
2023-01-06T12:57:59.351Z,18.93
2023-01-06T12:58:59.389Z,18.86
2023-01-06T12:59:59.422Z,18.89
2023-01-06T13:00:59.511Z,18.91
2023-01-06T13:01:59.607Z,18.84
2023-01-06T13:02:59.528Z,18.89
2023-01-06T13:03:59.557Z,18.82
2023-01-06T13:04:59.552Z,18.93
2023-01-06T13:05:59.568Z,18.94
2023-01-06T13:06:59.703Z,18.94
2023-01-06T13:07:59.738Z,18.94
2023-01-06T13:08:59.656Z,18.84
2023-01-06T13:09:59.716Z,18.86
2023-01-06T13:10:59.721Z,18.94
2023-01-06T13:11:59.829Z,18.83
2023-01-06T13:12:59.847Z,18.93
2023-01-06T13:13:59.810Z,18.94
2023-01-06T13:14:59.835Z,18.94
2023-01-06T13:15:59.912Z,18.89
2023-01-06T13:16:59.966Z,18.97
2023-01-06T13:17:59.968Z,18.93
2023-01-06T13:18:59.989Z,18.91
2023-01-06T13:19:59.977Z,18.97
2023-01-06T13:21:00.405Z,18.96
2023-01-06T13:22:00.049Z,18.91
2023-01-06T13:23:00.116Z,18.97
2023-01-06T13:24:00.110Z,18.93
2023-01-06T13:25:00.157Z,18.83
2023-01-06T13:26:00.151Z,18.89
2023-01-06T13:27:00.186Z,18.93
2023-01-06T13:28:00.222Z,19.01
2023-01-06T13:29:00.349Z,18.93
2023-01-06T13:30:00.576Z,18.91
2023-01-06T13:31:00.421Z,18.91
2023-01-06T13:32:00.326Z,18.91